KMUI

Muir AAF (Fort Indiantown Gap) Airport

Fort Indiantown Gap(Annville), Pennsylvania, USA
METAR KMUI 220356Z AUTO 33006KT 10SM CLR M11/M21 A3052 RMK AO2 SLP349 T11111213 $
Observed Flight Rules
Jan-22 @ 03:56 UTC (56 minutes ago) Visual Flight Rules
Wind Visibility Clouds
330° at 6 knots 10 miles
  • Clear skies
Temperatures Readings
Current -11°C / 12°F
Dewpoint -21°C / -6°F
Humidity 44%
Altimeter 30.52" Hg
Pressure 1034.9 hPa
Elevation 149
METAR KMUI 220356Z AUTO 33006KT 10SM CLR M11/M21 A3052 RMK AO2 SLP349 T11111213 $
Observed Flight Rules
Jan-22 @ 03:56 UTC
(56 minutes ago)
VFR
Wind Visibility
330° at 6 knots 10 miles
Clouds
  • Clear skies
Temperature Dewpoint
-11°C / 12°F -21°C / -6°F
Humidity Altimeter Pressure
44% 30.52" Hg 1034.9 hPa